createdAt,value
2018-02-08T00:01:25.747Z,98120.48
2018-02-08T00:03:54.010Z,98121.64
2018-02-08T00:06:22.270Z,98125.44
2018-02-08T00:08:51.960Z,98127.60
2018-02-08T00:11:20.194Z,98129.27
2018-02-08T00:13:48.454Z,98125.09
2018-02-08T00:16:16.707Z,98124.47
2018-02-08T00:18:45.736Z,98125.34
2018-02-08T00:21:13.991Z,98126.52
2018-02-08T00:23:42.253Z,98128.70
2018-02-08T00:26:11.277Z,98121.55
2018-02-08T00:28:39.544Z,98123.16
2018-02-08T00:31:07.801Z,98120.27
2018-02-08T00:33:36.826Z,98117.94
2018-02-08T00:36:05.099Z,98125.05
2018-02-08T00:38:33.349Z,98127.43
2018-02-08T00:41:01.613Z,98126.82
2018-02-08T00:43:30.641Z,98129.30
2018-02-08T00:45:58.905Z,98129.66
2018-02-08T00:48:27.156Z,98125.44
2018-02-08T00:50:56.191Z,98128.54
2018-02-08T00:53:24.441Z,98124.55
2018-02-08T00:55:52.745Z,98127.77
2018-02-08T00:58:20.998Z,98127.17
2018-02-08T01:00:49.249Z,98124.63
2018-02-08T01:03:18.274Z,98120.31
2018-02-08T01:05:46.534Z,98129.86
2018-02-08T01:08:15.565Z,98128.73
2018-02-08T01:10:43.822Z,98136.77
2018-02-08T01:13:12.081Z,98137.14
2018-02-08T01:15:40.341Z,98136.61
2018-02-08T01:18:09.371Z,98137.92
2018-02-08T01:20:37.627Z,98142.22
2018-02-08T01:23:05.884Z,98136.88
2018-02-08T01:25:34.910Z,98136.57
2018-02-08T01:28:03.169Z,98146.38
2018-02-08T01:30:31.427Z,98145.02
2018-02-08T01:33:00.459Z,98142.06
2018-02-08T01:35:28.715Z,98153.17
2018-02-08T01:37:56.974Z,98151.42
2018-02-08T01:40:25.995Z,98149.64
2018-02-08T01:42:54.258Z,98145.95
2018-02-08T01:45:23.283Z,98140.03
2018-02-08T01:47:51.538Z,98142.51
2018-02-08T01:50:19.790Z,98145.02
2018-02-08T01:52:48.823Z,98145.08
2018-02-08T01:55:17.070Z,98144.66
2018-02-08T01:57:45.333Z,98152.30
2018-02-08T02:00:14.346Z,98141.83
2018-02-08T02:02:42.606Z,98146.63
2018-02-08T02:05:11.622Z,98151.83
2018-02-08T02:07:39.882Z,98146.35
2018-02-08T02:10:08.906Z,98146.33
2018-02-08T02:12:37.159Z,98139.28
2018-02-08T02:15:05.410Z,98147.59
2018-02-08T02:17:34.437Z,98140.39
2018-02-08T02:20:02.684Z,98146.83
2018-02-08T02:22:31.706Z,98146.14
2018-02-08T02:24:59.962Z,98141.09
2018-02-08T02:27:28.217Z,98141.72
2018-02-08T02:29:56.479Z,98138.50
2018-02-08T02:32:24.731Z,98137.95
2018-02-08T02:34:52.992Z,98146.89
2018-02-08T02:37:21.254Z,98141.05
2018-02-08T02:39:49.517Z,98144.43
2018-02-08T02:42:18.539Z,98147.95
2018-02-08T02:44:46.795Z,98141.97
2018-02-08T02:47:15.048Z,98145.53
2018-02-08T02:49:44.074Z,98149.14
2018-02-08T02:52:12.329Z,98148.66
2018-02-08T02:54:41.356Z,98155.89
2018-02-08T02:57:09.614Z,98149.57
2018-02-08T02:59:37.861Z,98149.79
2018-02-08T03:02:06.894Z,98149.70
2018-02-08T03:04:35.155Z,98148.33
2018-02-08T03:07:03.417Z,98157.31
2018-02-08T03:09:32.439Z,98154.99
2018-02-08T03:12:00.695Z,98159.03
2018-02-08T03:14:28.953Z,98160.38
2018-02-08T03:16:57.987Z,98157.67
2018-02-08T03:19:26.239Z,98156.86
2018-02-08T03:21:54.499Z,98164.84
2018-02-08T03:24:23.515Z,98161.69
2018-02-08T03:26:51.770Z,98159.80
2018-02-08T03:29:20.787Z,98157.67
2018-02-08T03:31:49.054Z,98155.42
2018-02-08T03:34:17.307Z,98165.41
2018-02-08T03:36:46.335Z,98161.95
2018-02-08T03:39:14.597Z,98167.06
2018-02-08T03:41:42.853Z,98174.59
2018-02-08T03:44:11.879Z,98177.03
2018-02-08T03:46:40.142Z,98179.61
2018-02-08T03:49:08.404Z,98176.84
2018-02-08T03:51:37.430Z,98178.69
2018-02-08T03:54:05.678Z,98174.69
2018-02-08T03:56:34.691Z,98179.08
2018-02-08T03:59:02.942Z,98177.78
2018-02-08T04:01:31.961Z,98182.39
2018-02-08T04:04:00.222Z,98180.11
2018-02-08T04:06:28.469Z,98183.82
2018-02-08T04:08:57.495Z,98181.86
2018-02-08T04:11:25.746Z,98189.03
2018-02-08T04:13:54.785Z,98193.41
2018-02-08T04:16:23.038Z,98186.47
2018-02-08T04:18:51.969Z,98195.91
2018-02-08T04:21:20.231Z,98191.02
2018-02-08T04:23:48.490Z,98191.76
2018-02-08T04:26:16.737Z,98192.41
2018-02-08T04:28:45.762Z,98200.73
2018-02-08T04:31:14.015Z,98200.61
2018-02-08T04:33:43.039Z,98202.30
2018-02-08T04:36:11.291Z,98204.74
2018-02-08T04:38:57.314Z,98211.75
2018-02-08T04:41:43.265Z,98210.70
2018-02-08T04:47:34.797Z,98216.80
2018-02-08T04:50:03.819Z,98221.27
2018-02-08T04:52:32.066Z,98222.47
2018-02-08T04:55:01.094Z,98220.52
2018-02-08T04:57:29.346Z,98220.91
2018-02-08T04:59:57.603Z,98225.46
2018-02-08T05:02:26.626Z,98223.02
2018-02-08T05:04:54.888Z,98226.84
2018-02-08T05:07:23.147Z,98229.61
2018-02-08T05:09:52.186Z,98232.25
2018-02-08T05:12:20.425Z,98232.25
2018-02-08T05:14:49.450Z,98240.95
2018-02-08T05:17:17.702Z,98241.52
2018-02-08T05:19:45.962Z,98246.22
2018-02-08T05:22:14.977Z,98243.58
2018-02-08T05:24:43.247Z,98250.53
2018-02-08T05:27:12.259Z,98254.03
2018-02-08T05:29:40.551Z,98253.75
2018-02-08T05:32:08.797Z,98254.25
2018-02-08T05:34:37.055Z,98263.50
2018-02-08T05:37:06.086Z,98258.70
2018-02-08T05:39:34.333Z,98259.56
2018-02-08T05:42:02.602Z,98259.29
2018-02-08T05:44:31.625Z,98258.93
2018-02-08T05:46:59.895Z,98257.36
2018-02-08T05:49:28.154Z,98263.87
2018-02-08T05:51:57.179Z,98259.50
2018-02-08T05:54:25.429Z,98259.35
2018-02-08T05:56:53.703Z,98260.94
2018-02-08T05:59:22.718Z,98261.38
2018-02-08T06:01:50.974Z,98266.11
2018-02-08T06:04:19.226Z,98266.25
2018-02-08T06:06:48.249Z,98276.41
2018-02-08T06:09:16.501Z,98278.45
2018-02-08T06:11:45.530Z,98294.13
2018-02-08T06:14:13.782Z,98288.81
2018-02-08T06:16:42.810Z,98295.36
2018-02-08T06:19:11.066Z,98299.05
2018-02-08T06:21:39.325Z,98291.86
2018-02-08T06:24:08.343Z,98298.73
2018-02-08T06:26:36.608Z,98286.37
2018-02-08T06:29:04.864Z,98295.43
2018-02-08T06:31:33.895Z,98299.57
2018-02-08T06:34:02.146Z,98296.22
2018-02-08T06:36:30.416Z,98291.66
2018-02-08T06:38:59.428Z,98297.11
2018-02-08T06:41:27.689Z,98299.83
2018-02-08T06:43:55.942Z,98300.00
2018-02-08T06:46:24.966Z,98300.75
2018-02-08T06:48:53.221Z,98306.72
2018-02-08T06:51:22.243Z,98308.10
2018-02-08T06:53:50.526Z,98306.00
2018-02-08T06:56:18.810Z,98309.95
2018-02-08T06:58:47.081Z,98317.91
2018-02-08T07:01:15.386Z,98316.39
2018-02-08T07:03:43.662Z,98322.25
2018-02-08T07:06:11.922Z,98320.95
2018-02-08T07:08:40.181Z,98329.11
2018-02-08T07:11:08.455Z,98331.41
2018-02-08T07:13:36.755Z,98331.05
2018-02-08T07:16:05.045Z,98336.06
2018-02-08T07:18:33.329Z,98333.59
2018-02-08T07:21:01.602Z,98330.48
2018-02-08T07:23:29.897Z,98336.00
2018-02-08T07:25:58.945Z,98335.11
2018-02-08T07:28:27.204Z,98344.61
2018-02-08T07:30:55.505Z,98341.54
2018-02-08T07:33:23.835Z,98343.12
2018-02-08T07:35:52.882Z,98344.83
2018-02-08T07:38:21.175Z,98349.27
2018-02-08T07:40:49.441Z,98348.75
2018-02-08T07:43:17.848Z,98347.41
2018-02-08T07:45:46.924Z,98349.54
2018-02-08T07:48:15.303Z,98360.78
2018-02-08T07:50:43.628Z,98356.19
2018-02-08T07:53:11.996Z,98353.38
2018-02-08T07:55:40.306Z,98364.87
2018-02-08T07:58:08.601Z,98360.55
2018-02-08T08:00:36.949Z,98361.22
2018-02-08T08:03:05.277Z,98360.38
2018-02-08T08:05:34.373Z,98357.47
2018-02-08T08:08:03.457Z,98356.75
2018-02-08T08:10:31.781Z,98360.24
2018-02-08T08:13:00.081Z,98363.42
2018-02-08T08:15:28.447Z,98358.68
2018-02-08T08:17:56.776Z,98357.25
2018-02-08T08:20:25.894Z,98360.30
2018-02-08T08:22:54.258Z,98362.70
2018-02-08T08:25:23.366Z,98354.25
2018-02-08T08:27:51.747Z,98361.05
2018-02-08T08:30:20.155Z,98357.26
2018-02-08T08:32:48.503Z,98354.45
2018-02-08T08:35:16.932Z,98362.09
2018-02-08T08:37:45.348Z,98358.62
2018-02-08T08:40:14.512Z,98363.84
2018-02-08T08:42:44.399Z,98363.45
2018-02-08T08:45:12.844Z,98364.13
2018-02-08T08:47:42.004Z,98365.13
2018-02-08T08:50:10.392Z,98361.89
2018-02-08T08:52:38.809Z,98368.09
2018-02-08T08:55:07.191Z,98363.19
2018-02-08T08:57:35.502Z,98357.84
2018-02-08T09:00:03.823Z,98361.20
2018-02-08T09:02:32.954Z,98360.33
2018-02-08T09:05:01.332Z,98366.81
2018-02-08T09:07:29.659Z,98372.71
2018-02-08T09:09:58.767Z,98367.36
2018-02-08T09:12:27.939Z,98371.22
2018-02-08T09:14:56.279Z,98370.04
2018-02-08T09:17:24.641Z,98371.44
2018-02-08T09:19:52.984Z,98371.50
2018-02-08T09:22:22.128Z,98379.99
2018-02-08T09:24:50.492Z,98363.28
2018-02-08T09:27:18.865Z,98376.84
2018-02-08T09:29:47.234Z,98379.39
2018-02-08T09:32:15.577Z,98376.52
2018-02-08T09:34:43.900Z,98377.54
2018-02-08T09:37:12.276Z,98383.70
2018-02-08T09:39:40.648Z,98389.70
2018-02-08T09:42:09.011Z,98396.00
2018-02-08T09:44:38.206Z,98391.82
2018-02-08T09:47:07.412Z,98399.93
2018-02-08T09:49:35.789Z,98395.26
2018-02-08T09:52:04.932Z,98397.70
2018-02-08T09:54:33.252Z,98397.23
2018-02-08T09:57:02.452Z,98396.47
2018-02-08T09:59:30.814Z,98397.29
2018-02-08T10:01:59.199Z,98398.42
2018-02-08T10:04:28.793Z,98405.42
2018-02-08T10:06:57.147Z,98394.70
2018-02-08T10:09:25.553Z,98398.55
2018-02-08T10:11:53.945Z,98401.20
2018-02-08T10:14:23.122Z,98404.13
2018-02-08T10:16:51.521Z,98408.08
2018-02-08T10:19:20.728Z,98402.53
2018-02-08T10:21:49.836Z,98407.44
2018-02-08T10:24:18.233Z,98406.91
2018-02-08T10:26:46.615Z,98407.53
2018-02-08T10:29:14.953Z,98410.64
2018-02-08T10:31:44.065Z,98404.51
2018-02-08T10:34:12.414Z,98411.03
2018-02-08T10:36:40.813Z,98414.73
2018-02-08T10:39:09.961Z,98407.99
2018-02-08T10:41:38.398Z,98410.69
2018-02-08T10:44:06.868Z,98409.25
2018-02-08T10:46:36.046Z,98402.23
2018-02-08T10:49:04.491Z,98404.61
2018-02-08T10:51:32.961Z,98404.08
2018-02-08T10:54:01.271Z,98398.20
2018-02-08T10:56:29.673Z,98388.76
2018-02-08T10:58:58.775Z,98398.07
2018-02-08T11:01:27.969Z,98398.06
2018-02-08T11:03:56.320Z,98389.63
2018-02-08T11:06:24.662Z,98391.86
2018-02-08T11:08:52.987Z,98391.20
2018-02-08T11:11:22.106Z,98383.08
2018-02-08T11:13:51.241Z,98383.26
2018-02-08T11:16:19.628Z,98383.53
2018-02-08T11:18:47.984Z,98382.92
2018-02-08T11:21:16.360Z,98380.37
2018-02-08T11:23:44.764Z,98379.95
2018-02-08T11:26:13.158Z,98389.43
2018-02-08T11:28:41.580Z,98380.32
2018-02-08T11:31:10.796Z,98389.62
2018-02-08T11:33:39.146Z,98383.94
2018-02-08T11:36:08.226Z,98383.75
2018-02-08T11:38:36.663Z,98379.55
2018-02-08T11:41:05.078Z,98384.91
2018-02-08T11:43:33.548Z,98374.66
2018-02-08T11:46:02.157Z,98379.20
2018-02-08T11:48:30.579Z,98372.52
2018-02-08T11:50:58.995Z,98374.78
2018-02-08T11:53:27.377Z,98369.73
2018-02-08T11:55:55.732Z,98367.36
2018-02-08T11:58:24.153Z,98373.44
2018-02-08T12:00:52.555Z,98372.46
2018-02-08T12:03:20.984Z,98365.45
2018-02-08T12:05:49.388Z,98360.67
2018-02-08T12:08:17.766Z,98370.11
2018-02-08T12:10:46.214Z,98369.02
2018-02-08T12:13:14.679Z,98366.55
2018-02-08T12:15:43.052Z,98373.00
2018-02-08T12:18:11.468Z,98376.76
2018-02-08T12:20:39.826Z,98367.63
2018-02-08T12:23:08.148Z,98366.43
2018-02-08T12:25:36.578Z,98358.27
2018-02-08T12:28:04.871Z,98363.95
2018-02-08T12:30:33.227Z,98361.38
2018-02-08T12:33:01.547Z,98355.23
2018-02-08T12:35:29.903Z,98357.18
2018-02-08T12:37:58.290Z,98359.06
2018-02-08T12:40:26.598Z,98355.36
2018-02-08T12:42:55.763Z,98352.63
2018-02-08T12:45:24.167Z,98353.76
2018-02-08T12:47:53.356Z,98352.95
2018-02-08T12:50:22.491Z,98349.97
2018-02-08T12:52:50.821Z,98351.45
2018-02-08T12:55:19.933Z,98350.80
2018-02-08T12:57:49.056Z,98344.49
2018-02-08T13:00:17.389Z,98353.39
2018-02-08T13:02:45.754Z,98341.54
2018-02-08T13:05:14.096Z,98343.02
2018-02-08T13:07:42.414Z,98343.95
2018-02-08T13:10:10.816Z,98339.87
2018-02-08T13:12:40.025Z,98341.92
2018-02-08T13:15:08.418Z,98337.11
2018-02-08T13:17:36.963Z,98326.44
2018-02-08T13:20:05.402Z,98338.65
2018-02-08T13:22:33.883Z,98336.03
2018-02-08T13:25:02.246Z,98335.83
2018-02-08T13:27:30.675Z,98332.04
2018-02-08T13:29:59.003Z,98326.89
2018-02-08T13:32:27.401Z,98319.80
2018-02-08T13:34:55.822Z,98323.77
2018-02-08T13:37:24.990Z,98322.67
2018-02-08T13:39:53.475Z,98327.22
2018-02-08T13:42:22.185Z,98325.47
2018-02-08T13:44:51.410Z,98329.38
2018-02-08T13:50:42.978Z,98324.05
2018-02-08T13:56:31.734Z,98333.97
2018-02-08T14:02:06.839Z,98335.59
2018-02-08T14:04:35.158Z,98336.20
2018-02-08T14:07:03.494Z,98338.69
2018-02-08T14:09:31.883Z,98333.87
2018-02-08T14:12:00.968Z,98329.69
2018-02-08T14:14:29.295Z,98334.52
2018-02-08T14:16:57.609Z,98335.53
2018-02-08T14:19:25.941Z,98327.67
2018-02-08T14:21:54.291Z,98330.78
2018-02-08T14:24:23.522Z,98328.83
2018-02-08T14:26:52.001Z,98329.01
2018-02-08T14:29:20.412Z,98329.23
2018-02-08T14:31:48.862Z,98329.45
2018-02-08T14:34:17.342Z,98334.06
2018-02-08T14:36:45.802Z,98328.05
2018-02-08T14:39:15.036Z,98326.42
2018-02-08T14:41:43.465Z,98329.31
2018-02-08T14:44:12.713Z,98325.47
2018-02-08T14:46:41.168Z,98324.63
2018-02-08T14:49:09.595Z,98334.62
2018-02-08T14:51:38.727Z,98330.16
2018-02-08T14:54:07.825Z,98326.13
2018-02-08T14:56:36.923Z,98322.47
2018-02-08T14:59:06.046Z,98324.94
2018-02-08T15:01:34.435Z,98326.20
2018-02-08T15:04:02.779Z,98323.87
2018-02-08T15:06:31.225Z,98324.60
2018-02-08T15:08:59.589Z,98322.78
2018-02-08T15:11:28.008Z,98332.19
2018-02-08T15:13:57.227Z,98334.55
2018-02-08T15:16:25.557Z,98332.70
2018-02-08T15:18:54.063Z,98331.08
2018-02-08T15:21:23.167Z,98338.23
2018-02-08T15:23:51.656Z,98332.14
2018-02-08T15:26:19.965Z,98334.73
2018-02-08T15:28:48.426Z,98343.12
2018-02-08T15:31:16.828Z,98333.23
2018-02-08T15:33:45.284Z,98341.77
2018-02-08T15:36:13.716Z,98342.84
2018-02-08T15:38:42.159Z,98340.67
2018-02-08T15:41:10.597Z,98334.69
2018-02-08T15:43:39.792Z,98337.44
2018-02-08T15:46:08.247Z,98337.75
2018-02-08T15:48:37.458Z,98340.72
2018-02-08T15:51:06.596Z,98333.18
2018-02-08T15:53:34.992Z,98349.05
2018-02-08T15:56:03.379Z,98347.82
2018-02-08T15:58:32.593Z,98345.69
2018-02-08T16:01:00.942Z,98344.95
2018-02-08T16:03:29.297Z,98351.53
2018-02-08T16:05:57.661Z,98356.49
2018-02-08T16:08:26.754Z,98356.03
2018-02-08T16:10:55.945Z,98358.11
2018-02-08T16:13:25.091Z,98354.48
2018-02-08T16:15:53.575Z,98365.84
2018-02-08T16:18:21.947Z,98364.20
2018-02-08T16:20:50.315Z,98368.20
2018-02-08T16:23:18.660Z,98373.29
2018-02-08T16:25:47.802Z,98372.77
2018-02-08T16:28:16.176Z,98376.22
2018-02-08T16:30:44.574Z,98379.65
2018-02-08T16:33:12.896Z,98385.36
2018-02-08T16:35:41.361Z,98381.97
2018-02-08T16:38:09.708Z,98383.87
2018-02-08T16:40:38.045Z,98377.84
2018-02-08T16:43:06.429Z,98380.62
2018-02-08T16:45:34.790Z,98381.95
2018-02-08T16:48:03.950Z,98377.28
2018-02-08T16:50:32.354Z,98380.98
2018-02-08T16:53:01.494Z,98382.56
2018-02-08T16:55:29.795Z,98384.00
2018-02-08T16:57:58.116Z,98390.33
2018-02-08T17:00:26.478Z,98389.26
2018-02-08T17:02:55.652Z,98381.41
2018-02-08T17:05:23.987Z,98381.43
2018-02-08T17:07:52.365Z,98384.98
2018-02-08T17:10:20.625Z,98385.86
2018-02-08T17:12:48.897Z,98385.73
2018-02-08T17:15:17.160Z,98389.59
2018-02-08T17:17:46.196Z,98388.91
2018-02-08T17:20:14.453Z,98390.34
2018-02-08T17:22:42.728Z,98385.14
2018-02-08T17:25:10.982Z,98387.52
2018-02-08T17:27:40.023Z,98381.91
2018-02-08T17:30:08.282Z,98383.97
2018-02-08T17:32:36.586Z,98387.30
2018-02-08T17:35:04.846Z,98386.19
2018-02-08T17:37:33.112Z,98390.27
2018-02-08T17:40:01.379Z,98388.61
2018-02-08T17:42:29.638Z,98387.64
2018-02-08T17:44:58.673Z,98390.83
2018-02-08T17:47:26.951Z,98387.16
2018-02-08T17:49:55.215Z,98392.48
2018-02-08T17:52:23.469Z,98393.27
2018-02-08T17:54:51.741Z,98391.47
2018-02-08T17:57:20.009Z,98392.19
2018-02-08T17:59:48.278Z,98393.31
2018-02-08T18:02:17.303Z,98393.43
2018-02-08T18:04:45.566Z,98389.80
2018-02-08T18:07:13.830Z,98396.62
2018-02-08T18:09:42.860Z,98393.86
2018-02-08T18:12:11.120Z,98396.02
2018-02-08T18:14:39.391Z,98403.16
2018-02-08T18:17:07.650Z,98395.41
2018-02-08T18:19:36.682Z,98396.41
2018-02-08T18:22:04.948Z,98393.64
2018-02-08T18:24:33.215Z,98401.17
2018-02-08T18:27:01.479Z,98409.28
2018-02-08T18:29:29.761Z,98409.11
2018-02-08T18:31:58.044Z,98408.36
2018-02-08T18:34:26.312Z,98407.84
2018-02-08T18:36:54.573Z,98406.14
2018-02-08T18:39:23.600Z,98415.48
2018-02-08T18:41:51.865Z,98414.45
2018-02-08T18:44:20.137Z,98411.51
2018-02-08T18:46:48.406Z,98407.69
2018-02-08T18:49:16.670Z,98414.67
2018-02-08T18:51:45.706Z,98411.83
2018-02-08T18:54:14.741Z,98406.44
2018-02-08T18:56:43.773Z,98404.58
2018-02-08T18:59:12.046Z,98402.84
2018-02-08T19:01:40.305Z,98404.48
2018-02-08T19:04:08.577Z,98409.36
2018-02-08T19:06:37.610Z,98405.48
2018-02-08T19:09:05.872Z,98406.83
2018-02-08T19:11:34.149Z,98403.95
2018-02-08T19:14:02.411Z,98403.70
2018-02-08T19:16:30.674Z,98401.39
2018-02-08T19:18:58.934Z,98399.33
2018-02-08T19:21:27.977Z,98395.08
2018-02-08T19:23:56.230Z,98399.26
2018-02-08T19:26:24.505Z,98401.88
2018-02-08T19:28:52.762Z,98401.00
2018-02-08T19:31:21.796Z,98392.75
2018-02-08T19:33:50.054Z,98393.17
2018-02-08T19:36:18.314Z,98393.59
2018-02-08T19:38:47.330Z,98395.16
2018-02-08T19:41:15.606Z,98395.16
2018-02-08T19:43:43.871Z,98399.89
2018-02-08T19:46:12.218Z,98402.50
2018-02-08T19:48:40.471Z,98406.98
2018-02-08T19:51:08.729Z,98402.95
2018-02-08T19:53:37.035Z,98411.09
2018-02-08T19:56:05.269Z,98407.16
2018-02-08T19:58:33.521Z,98403.26
2018-02-08T20:01:01.782Z,98404.56
2018-02-08T20:03:30.803Z,98405.05
2018-02-08T20:05:59.069Z,98409.17
2018-02-08T20:08:27.339Z,98408.84
2018-02-08T20:10:56.367Z,98406.73
2018-02-08T20:13:24.630Z,98401.77
2018-02-08T20:15:52.901Z,98403.56
2018-02-08T20:18:21.154Z,98403.56
2018-02-08T20:20:50.175Z,98401.37
2018-02-08T20:23:18.439Z,98393.80
2018-02-08T20:25:46.698Z,98383.20
2018-02-08T20:28:15.735Z,98391.55
2018-02-08T20:30:49.317Z,98399.65
2018-02-08T20:33:17.583Z,98393.25
2018-02-08T20:35:45.841Z,98397.81
2018-02-08T20:38:14.870Z,98397.72
2018-02-08T20:40:43.128Z,98393.28
2018-02-08T20:43:16.888Z,98396.71
2018-02-08T20:45:45.156Z,98397.56
2018-02-08T20:48:13.422Z,98395.83
2018-02-08T20:50:41.677Z,98396.28
2018-02-08T20:53:09.947Z,98400.68
2018-02-08T20:55:38.210Z,98391.64
2018-02-08T20:58:06.483Z,98393.89
2018-02-08T21:00:34.754Z,98401.89
2018-02-08T21:03:03.044Z,98404.31
2018-02-08T21:05:31.302Z,98402.52
2018-02-08T21:08:00.336Z,98404.31
2018-02-08T21:10:28.590Z,98404.41
2018-02-08T21:12:56.860Z,98399.02
2018-02-08T21:15:25.139Z,98394.78
2018-02-08T21:17:53.406Z,98388.52
2018-02-08T21:20:21.675Z,98384.95
2018-02-08T21:22:50.714Z,98384.86
2018-02-08T21:25:18.975Z,98383.06
2018-02-08T21:27:47.235Z,98380.03
2018-02-08T21:30:15.696Z,98382.22
2018-02-08T21:32:44.019Z,98381.36
2018-02-08T21:35:12.267Z,98389.30
2018-02-08T21:37:40.533Z,98385.58
2018-02-08T21:40:08.789Z,98380.30
2018-02-08T21:42:37.818Z,98378.04
2018-02-08T21:45:06.071Z,98376.11
2018-02-08T21:47:34.333Z,98370.89
2018-02-08T21:50:03.360Z,98374.25
2018-02-08T21:52:31.627Z,98371.19
2018-02-08T21:54:59.898Z,98368.00
2018-02-08T21:57:28.166Z,98366.84
2018-02-08T21:59:56.432Z,98366.70
2018-02-08T22:02:25.466Z,98361.52
2018-02-08T22:04:53.741Z,98369.48
2018-02-08T22:07:21.988Z,98365.95
2018-02-08T22:09:50.245Z,98364.78
2018-02-08T22:12:19.273Z,98363.86
2018-02-08T22:14:47.528Z,98363.83
2018-02-08T22:17:16.566Z,98358.09
2018-02-08T22:19:45.587Z,98358.17
2018-02-08T22:22:13.848Z,98355.25
2018-02-08T22:24:42.102Z,98353.38
2018-02-08T22:27:10.415Z,98353.09
2018-02-08T22:29:38.661Z,98360.38
2018-02-08T22:32:06.923Z,98360.77
2018-02-08T22:34:35.189Z,98359.30
2018-02-08T22:37:03.450Z,98356.75
2018-02-08T22:39:31.717Z,98356.58
2018-02-08T22:42:00.745Z,98358.20
2018-02-08T22:44:29.001Z,98356.84
2018-02-08T22:46:57.257Z,98355.81
2018-02-08T22:49:26.290Z,98351.19
2018-02-08T22:51:54.547Z,98350.27
2018-02-08T22:54:22.809Z,98357.40
2018-02-08T22:56:51.826Z,98351.23
2018-02-08T22:59:20.093Z,98348.33
2018-02-08T23:01:48.366Z,98352.49
2018-02-08T23:04:16.634Z,98346.50
2018-02-08T23:06:44.902Z,98343.66
2018-02-08T23:09:13.947Z,98348.27
2018-02-08T23:11:42.200Z,98349.99
2018-02-08T23:14:10.461Z,98348.31
2018-02-08T23:16:38.719Z,98347.52
2018-02-08T23:19:07.738Z,98344.47
2018-02-08T23:21:35.994Z,98349.55
2018-02-08T23:24:04.258Z,98353.97
2018-02-08T23:26:33.277Z,98353.25
2018-02-08T23:29:01.540Z,98355.41
2018-02-08T23:31:29.797Z,98351.21
2018-02-08T23:33:58.054Z,98351.95
2018-02-08T23:36:26.305Z,98357.02
2018-02-08T23:38:54.576Z,98347.55
2018-02-08T23:41:22.843Z,98347.63
2018-02-08T23:43:51.106Z,98345.75
2018-02-08T23:46:19.357Z,98350.31
2018-02-08T23:48:48.382Z,98341.69
2018-02-08T23:51:16.633Z,98348.11
2018-02-08T23:53:45.652Z,98349.71
2018-02-08T23:56:13.913Z,98347.59
2018-02-08T23:58:42.171Z,98350.91
